createdAt,value
2022-09-22T00:00:40.673Z,27.00
2022-09-22T00:03:47.507Z,30.50
2022-09-22T00:06:52.583Z,28.60
2022-09-22T00:09:56.267Z,32.60
2022-09-22T00:12:59.610Z,33.80
2022-09-22T00:16:03.925Z,31.60
2022-09-22T00:19:07.931Z,28.00
2022-09-22T00:22:12.601Z,27.25
2022-09-22T00:25:17.229Z,28.50
2022-09-22T00:28:21.920Z,34.50
2022-09-22T00:31:26.908Z,32.00
2022-09-22T00:34:30.180Z,33.00
2022-09-22T00:37:35.430Z,32.00
2022-09-22T00:40:39.100Z,30.00
2022-09-22T00:43:43.121Z,30.00
2022-09-22T00:46:50.474Z,29.20
2022-09-22T00:49:58.702Z,27.20
2022-09-22T00:53:07.134Z,31.00
2022-09-22T00:56:15.173Z,29.00
2022-09-22T00:59:21.159Z,29.60
2022-09-22T01:02:25.463Z,28.00
2022-09-22T01:05:31.463Z,31.00
2022-09-22T01:08:37.892Z,31.25
2022-09-22T01:11:42.730Z,30.40
2022-09-22T01:15:14.151Z,32.00
2022-09-22T01:18:25.911Z,29.60
2022-09-22T01:21:41.877Z,29.20
2022-09-22T01:25:06.850Z,31.00
2022-09-22T01:28:32.570Z,27.75
2022-09-22T01:31:46.552Z,29.80
2022-09-22T01:34:57.620Z,30.50
2022-09-22T01:38:10.317Z,30.75
2022-09-22T01:41:19.592Z,30.40
2022-09-22T01:44:32.735Z,32.00
2022-09-22T01:47:42.039Z,29.00
2022-09-22T01:50:51.297Z,30.00
2022-09-22T01:53:58.964Z,30.00
2022-09-22T01:57:07.532Z,29.00
2022-09-22T02:00:12.021Z,30.00
2022-09-22T02:03:25.683Z,31.00
2022-09-22T02:06:34.757Z,32.50
2022-09-22T02:09:41.905Z,28.80
2022-09-22T02:12:45.239Z,30.00
2022-09-22T02:16:04.163Z,27.00
2022-09-22T02:19:13.783Z,28.80
2022-09-22T02:22:17.539Z,26.75
2022-09-22T02:25:22.692Z,26.00
2022-09-22T02:28:27.268Z,29.00
2022-09-22T02:31:34.626Z,29.00
2022-09-22T02:34:39.723Z,28.00
2022-09-22T02:37:50.455Z,26.40
2022-09-22T02:41:02.781Z,28.00
2022-09-22T02:44:13.153Z,23.00
2022-09-22T02:47:20.331Z,25.50
2022-09-22T02:50:28.178Z,25.20
2022-09-22T02:53:31.430Z,27.25
2022-09-22T02:56:35.095Z,23.40
2022-09-22T02:59:38.447Z,26.60
2022-09-22T03:02:41.844Z,26.00
2022-09-22T03:05:46.626Z,24.80
2022-09-22T03:08:49.913Z,23.80
2022-09-22T03:11:53.401Z,27.80
2022-09-22T03:14:56.689Z,24.40
2022-09-22T03:18:00.765Z,27.50
2022-09-22T03:21:05.992Z,23.20
2022-09-22T03:24:09.341Z,22.20
2022-09-22T03:27:12.779Z,24.00
2022-09-22T03:30:16.081Z,24.60
2022-09-22T03:33:19.326Z,24.00
2022-09-22T03:36:24.027Z,20.00
2022-09-22T03:39:27.282Z,21.00
2022-09-22T03:42:30.930Z,19.00
2022-09-22T03:45:34.859Z,20.00
2022-09-22T03:48:42.874Z,21.80
2022-09-22T03:51:49.522Z,21.40
2022-09-22T03:54:54.583Z,21.50
2022-09-22T03:57:57.824Z,18.20
2022-09-22T04:01:01.062Z,16.00
2022-09-22T04:04:04.832Z,24.25
2022-09-22T04:07:09.707Z,21.67
2022-09-22T04:10:13.507Z,21.00
2022-09-22T04:13:16.782Z,18.20
2022-09-22T04:16:20.112Z,23.20
2022-09-22T04:19:23.504Z,23.00
2022-09-22T04:22:28.981Z,17.40
2022-09-22T04:25:32.785Z,22.00
2022-09-22T04:28:38.775Z,22.20
2022-09-22T04:31:41.998Z,20.00
2022-09-22T04:34:45.214Z,20.00
2022-09-22T04:37:50.073Z,23.40
2022-09-22T04:40:54.258Z,22.00
2022-09-22T04:43:57.928Z,20.75
2022-09-22T04:47:01.158Z,17.60
2022-09-22T04:50:04.667Z,19.00
2022-09-22T04:53:09.500Z,17.40
2022-09-22T04:56:13.141Z,15.50
2022-09-22T04:59:16.441Z,20.00
2022-09-22T05:02:19.901Z,19.40
2022-09-22T05:05:24.564Z,19.25
2022-09-22T05:08:31.090Z,20.40
2022-09-22T05:11:34.594Z,19.00
2022-09-22T05:14:37.875Z,21.40
2022-09-22T05:17:46.685Z,19.80
2022-09-22T05:20:49.931Z,23.80
2022-09-22T05:23:56.474Z,20.00
2022-09-22T05:27:00.238Z,17.80
2022-09-22T05:30:03.722Z,18.00
2022-09-22T05:33:07.022Z,15.60
2022-09-22T05:36:10.289Z,19.00
2022-09-22T05:39:15.319Z,13.60
2022-09-22T05:42:18.861Z,13.80
2022-09-22T05:45:23.141Z,18.00
2022-09-22T05:48:30.388Z,17.00
2022-09-22T05:51:34.586Z,15.75
2022-09-22T05:54:39.245Z,14.00
2022-09-22T05:57:43.738Z,16.60
2022-09-22T06:00:47.067Z,14.00
2022-09-22T06:03:50.389Z,16.00
2022-09-22T06:06:53.531Z,16.25
2022-09-22T06:09:58.538Z,13.80
2022-09-22T06:13:03.599Z,11.80
2022-09-22T06:16:07.678Z,12.00
2022-09-22T06:19:11.085Z,17.80
2022-09-22T06:22:14.312Z,13.50
2022-09-22T06:25:19.435Z,13.40
2022-09-22T06:28:22.915Z,12.60
2022-09-22T06:31:26.423Z,12.00
2022-09-22T06:34:29.751Z,12.00
2022-09-22T06:37:33.317Z,13.00
2022-09-22T06:40:38.400Z,13.00
2022-09-22T06:43:42.578Z,11.50
2022-09-22T06:46:45.829Z,12.00
2022-09-22T06:49:49.049Z,13.20
2022-09-22T06:52:52.786Z,13.00
2022-09-22T06:56:03.656Z,12.00
2022-09-22T06:59:12.907Z,9.80
2022-09-22T07:02:17.289Z,8.80
2022-09-22T07:05:21.188Z,10.60
2022-09-22T07:08:25.876Z,9.60
2022-09-22T07:11:30.758Z,9.60
2022-09-22T07:14:34.210Z,11.60
2022-09-22T07:17:37.468Z,12.00
2022-09-22T07:20:40.722Z,12.60
2022-09-22T07:23:44.687Z,12.40
2022-09-22T07:26:50.110Z,11.00
2022-09-22T07:29:54.286Z,9.00
2022-09-22T07:32:58.116Z,10.00
2022-09-22T07:36:05.437Z,10.00
2022-09-22T07:39:11.342Z,9.00
2022-09-22T07:42:17.074Z,9.00
2022-09-22T07:45:21.970Z,11.60
2022-09-22T07:48:46.847Z,8.80
2022-09-22T07:51:54.992Z,10.00
2022-09-22T07:54:58.467Z,10.25
2022-09-22T07:58:03.405Z,10.00
2022-09-22T08:01:07.829Z,9.80
2022-09-22T08:04:16.834Z,10.00
2022-09-22T08:07:20.167Z,10.00
2022-09-22T08:10:23.435Z,12.60
2022-09-22T08:13:28.283Z,8.00
2022-09-22T08:16:34.144Z,10.00
2022-09-22T08:19:37.539Z,9.50
2022-09-22T08:22:42.125Z,9.00
2022-09-22T08:25:45.395Z,10.00
2022-09-22T08:28:52.770Z,9.00
2022-09-22T08:31:56.788Z,7.60
2022-09-22T08:35:00.083Z,8.75
2022-09-22T08:38:03.508Z,11.20
2022-09-22T08:41:18.248Z,9.40
2022-09-22T08:44:26.656Z,6.25
2022-09-22T08:47:51.750Z,10.25
2022-09-22T08:51:17.586Z,6.00
2022-09-22T08:54:22.051Z,8.60
2022-09-22T08:57:56.471Z,7.00
2022-09-22T09:01:10.121Z,7.00
2022-09-22T09:05:00.883Z,8.00
2022-09-22T09:08:24.621Z,7.80
2022-09-22T09:11:48.026Z,12.00
2022-09-22T09:15:06.544Z,9.00
2022-09-22T09:18:17.653Z,7.25
2022-09-22T09:21:23.867Z,10.25
2022-09-22T09:28:01.628Z,9.60
2022-09-22T09:31:13.468Z,9.00
2022-09-22T09:34:22.035Z,6.25
2022-09-22T09:37:25.536Z,7.00
2022-09-22T09:40:30.046Z,5.60
2022-09-22T09:43:33.536Z,6.00
2022-09-22T09:46:52.909Z,5.60
2022-09-22T09:49:57.808Z,5.00
2022-09-22T09:53:07.709Z,5.00
2022-09-22T09:56:23.756Z,5.50
2022-09-22T09:59:45.655Z,5.00
2022-09-22T10:02:51.480Z,4.00
2022-09-22T10:06:02.801Z,5.00
2022-09-22T10:09:06.336Z,4.40
2022-09-22T10:12:23.608Z,4.00
2022-09-22T10:15:27.882Z,4.00
2022-09-22T10:18:36.571Z,4.50
2022-09-22T10:21:41.200Z,4.60
2022-09-22T10:24:54.778Z,4.50
2022-09-22T10:28:04.401Z,3.00
2022-09-22T10:31:07.708Z,4.00
2022-09-22T10:34:31.488Z,3.00
2022-09-22T10:37:36.356Z,4.00
2022-09-22T10:40:43.184Z,5.25
2022-09-22T10:43:51.153Z,5.00
2022-09-22T10:47:13.895Z,5.00
2022-09-22T10:50:32.806Z,5.00
2022-09-22T10:53:53.004Z,6.00
2022-09-22T10:57:09.520Z,5.00
2022-09-22T11:00:17.004Z,5.00
2022-09-22T11:03:32.920Z,5.40
2022-09-22T11:07:15.886Z,3.00
2022-09-22T11:10:49.764Z,4.00
2022-09-22T11:14:08.828Z,3.00
2022-09-22T11:17:27.002Z,2.50
2022-09-22T11:20:36.860Z,2.00
2022-09-22T11:24:01.539Z,2.00
2022-09-22T11:27:15.836Z,1.00
2022-09-22T11:30:21.742Z,3.00
2022-09-22T11:34:20.093Z,2.00
2022-09-22T11:37:38.002Z,4.00
2022-09-22T11:41:01.091Z,2.75
2022-09-22T11:44:28.745Z,3.00
2022-09-22T11:47:50.136Z,3.00
2022-09-22T11:51:19.436Z,2.40
2022-09-22T11:54:37.090Z,3.40
2022-09-22T11:57:45.907Z,3.00
2022-09-22T12:00:54.800Z,4.00
2022-09-22T12:04:06.168Z,4.00
2022-09-22T12:07:17.551Z,5.00
2022-09-22T12:10:24.495Z,2.00
2022-09-22T12:13:29.970Z,3.40
2022-09-22T12:16:42.229Z,3.00
2022-09-22T12:19:57.059Z,4.40
2022-09-22T12:23:20.630Z,4.80
2022-09-22T12:26:29.763Z,3.00
2022-09-22T12:29:33.088Z,3.60
2022-09-22T12:32:40.128Z,3.75
2022-09-22T12:35:44.182Z,3.00
2022-09-22T12:38:47.945Z,5.00
2022-09-22T12:41:58.177Z,4.60
2022-09-22T12:45:09.281Z,3.00
2022-09-22T12:48:18.647Z,2.80
2022-09-22T12:51:33.513Z,3.25
2022-09-22T12:54:41.517Z,3.00
2022-09-22T12:57:49.084Z,3.00
2022-09-22T13:00:54.691Z,2.00
2022-09-22T13:04:14.228Z,2.00
2022-09-22T13:07:36.470Z,3.00
2022-09-22T13:10:50.845Z,3.00
2022-09-22T13:13:54.279Z,3.00
2022-09-22T13:16:58.068Z,3.00
2022-09-22T13:20:14.610Z,3.60
2022-09-22T13:23:17.814Z,2.00
2022-09-22T13:26:23.466Z,2.20
2022-09-22T13:29:26.688Z,2.20
2022-09-22T13:32:30.147Z,3.00
2022-09-22T13:35:38.645Z,3.00
2022-09-22T13:38:45.140Z,1.00
2022-09-22T13:41:52.414Z,2.00
2022-09-22T13:45:01.265Z,4.00
2022-09-22T13:48:09.033Z,3.00
2022-09-22T13:51:17.644Z,3.00
2022-09-22T13:54:24.958Z,3.00
2022-09-22T13:57:31.384Z,2.40
2022-09-22T14:01:01.754Z,3.00
2022-09-22T14:04:23.408Z,3.00
2022-09-22T14:07:31.408Z,2.50
2022-09-22T14:10:35.552Z,2.00
2022-09-22T14:13:44.707Z,3.40
2022-09-22T14:16:50.605Z,6.00
2022-09-22T14:19:58.997Z,5.00
2022-09-22T14:23:03.668Z,4.80
2022-09-22T14:26:24.332Z,5.00
2022-09-22T14:29:30.312Z,5.20
2022-09-22T14:32:37.816Z,5.00
2022-09-22T14:35:41.770Z,7.25
2022-09-22T14:38:58.779Z,4.60
2022-09-22T14:42:17.927Z,3.00
2022-09-22T14:45:22.316Z,4.00
2022-09-22T14:48:30.786Z,4.00
2022-09-22T14:51:37.058Z,4.00
2022-09-22T14:54:44.708Z,3.00
2022-09-22T14:57:50.425Z,3.60
2022-09-22T15:01:14.722Z,4.40
2022-09-22T15:04:22.439Z,4.00
2022-09-22T15:07:29.302Z,4.50
2022-09-22T15:10:37.509Z,4.00
2022-09-22T15:13:43.439Z,5.00
2022-09-22T15:16:46.687Z,3.50
2022-09-22T15:19:51.560Z,5.60
2022-09-22T15:22:55.644Z,4.00
2022-09-22T15:26:05.066Z,6.80
2022-09-22T15:29:10.881Z,5.00
2022-09-22T15:32:14.286Z,8.80
2022-09-22T15:35:18.785Z,6.00
2022-09-22T15:38:24.383Z,6.00
2022-09-22T15:41:29.196Z,8.00
2022-09-22T15:44:33.313Z,6.50
2022-09-22T15:47:39.212Z,5.00
2022-09-22T15:50:42.534Z,7.00
2022-09-22T15:53:46.271Z,7.40
2022-09-22T15:56:53.984Z,6.00
2022-09-22T15:59:57.345Z,5.50
2022-09-22T16:03:01.887Z,5.00
2022-09-22T16:06:07.412Z,7.75
2022-09-22T16:09:16.279Z,4.00
2022-09-22T16:12:23.545Z,5.00
2022-09-22T16:15:27.159Z,8.00
2022-09-22T16:18:33.206Z,7.00
2022-09-22T16:21:38.346Z,7.00
2022-09-22T16:24:43.408Z,9.00
2022-09-22T16:27:48.013Z,8.00
2022-09-22T16:30:51.661Z,6.75
2022-09-22T16:33:56.057Z,9.00
2022-09-22T16:36:59.320Z,7.00
2022-09-22T16:40:03.194Z,8.50
2022-09-22T16:43:09.048Z,8.00
2022-09-22T16:46:28.528Z,7.00
2022-09-22T16:49:33.568Z,7.40
2022-09-22T16:52:38.314Z,8.00
2022-09-22T16:55:49.320Z,7.00
2022-09-22T16:58:55.341Z,7.00
2022-09-22T17:01:59.139Z,7.00
2022-09-22T17:05:02.321Z,5.80
2022-09-22T17:08:06.955Z,6.25
2022-09-22T17:11:12.306Z,6.80
2022-09-22T17:14:21.879Z,7.20
2022-09-22T17:17:25.560Z,8.00
2022-09-22T17:20:28.923Z,7.00
2022-09-22T17:23:32.208Z,7.40
2022-09-22T17:26:37.801Z,8.00
2022-09-22T17:29:42.472Z,7.00
2022-09-22T17:32:47.419Z,9.00
2022-09-22T17:35:51.004Z,7.60
2022-09-22T17:38:56.125Z,10.00
2022-09-22T17:41:59.619Z,10.00
2022-09-22T17:45:04.724Z,11.00
2022-09-22T17:48:25.300Z,11.00
2022-09-22T17:51:51.047Z,9.40
2022-09-22T17:55:11.214Z,11.00
2022-09-22T17:58:14.429Z,13.75
2022-09-22T18:01:19.492Z,9.80
2022-09-22T18:04:22.771Z,11.00
2022-09-22T18:07:27.991Z,13.00
2022-09-22T18:10:34.407Z,12.00
2022-09-22T18:13:40.394Z,13.60
2022-09-22T18:16:45.025Z,14.00
2022-09-22T18:19:49.028Z,14.00
2022-09-22T18:22:52.295Z,13.00
2022-09-22T18:25:55.670Z,10.60
2022-09-22T18:28:59.107Z,13.00
2022-09-22T18:32:04.346Z,13.00
2022-09-22T18:35:08.695Z,12.00
2022-09-22T18:38:12.140Z,14.00
2022-09-22T18:41:19.632Z,16.00
2022-09-22T18:44:23.653Z,15.00
2022-09-22T18:47:28.420Z,18.00
2022-09-22T18:50:34.643Z,20.00
2022-09-22T18:53:37.995Z,19.00
2022-09-22T18:56:42.733Z,17.25
2022-09-22T18:59:46.047Z,18.00
2022-09-22T19:02:50.834Z,18.00
2022-09-22T19:05:54.178Z,19.25
2022-09-22T19:08:57.870Z,17.20
2022-09-22T19:12:02.001Z,20.00
2022-09-22T19:15:05.792Z,19.25
2022-09-22T19:18:10.789Z,20.00
2022-09-22T19:21:15.575Z,19.00
2022-09-22T19:24:19.273Z,19.00
2022-09-22T19:27:23.138Z,16.00
2022-09-22T19:30:29.646Z,17.00
2022-09-22T19:33:36.135Z,18.25
2022-09-22T19:36:40.655Z,19.00
2022-09-22T19:39:44.163Z,20.00
2022-09-22T19:42:47.427Z,20.00
2022-09-22T19:45:50.831Z,20.60
2022-09-22T19:48:57.113Z,20.00
2022-09-22T19:52:00.601Z,20.60
2022-09-22T19:55:04.089Z,22.60
2022-09-22T19:58:08.550Z,18.60
2022-09-22T20:01:12.022Z,19.00
2022-09-22T20:04:19.285Z,24.00
2022-09-22T20:07:23.272Z,23.00
2022-09-22T20:10:26.904Z,23.60
2022-09-22T20:13:47.485Z,20.80
2022-09-22T20:16:53.639Z,20.80
2022-09-22T20:19:58.378Z,20.00
2022-09-22T20:23:01.689Z,20.20
2022-09-22T20:26:04.946Z,22.00
2022-09-22T20:29:08.092Z,20.00
2022-09-22T20:32:13.956Z,19.00
2022-09-22T20:35:21.979Z,19.40
2022-09-22T20:38:25.380Z,18.00
2022-09-22T20:41:29.236Z,18.80
2022-09-22T20:44:32.998Z,22.60
2022-09-22T20:47:36.450Z,24.40
2022-09-22T20:50:41.169Z,22.00
2022-09-22T20:53:45.412Z,21.00
2022-09-22T20:56:49.759Z,22.00
2022-09-22T20:59:52.853Z,21.60
2022-09-22T21:03:00.358Z,22.50
2022-09-22T21:06:07.094Z,22.75
2022-09-22T21:09:28.032Z,19.60
2022-09-22T21:12:31.644Z,22.50
2022-09-22T21:15:34.875Z,19.00
2022-09-22T21:18:39.034Z,22.00
2022-09-22T21:21:43.934Z,21.40
2022-09-22T21:24:48.845Z,20.20
2022-09-22T21:27:52.668Z,22.20
2022-09-22T21:30:57.218Z,21.40
2022-09-22T21:34:00.592Z,18.80
2022-09-22T21:37:05.180Z,21.00
2022-09-22T21:40:10.481Z,19.50
2022-09-22T21:43:14.135Z,20.33
2022-09-22T21:46:19.158Z,21.67
2022-09-22T21:49:23.032Z,20.25
2022-09-22T21:52:28.355Z,22.40
2022-09-22T21:55:31.642Z,18.00
2022-09-22T21:58:37.260Z,22.60
2022-09-22T22:01:47.049Z,20.00
2022-09-22T22:04:50.428Z,20.00
2022-09-22T22:07:55.285Z,22.00
2022-09-22T22:11:04.567Z,22.50
2022-09-22T22:14:09.916Z,21.80
2022-09-22T22:17:13.277Z,16.60
2022-09-22T22:20:16.784Z,19.40
2022-09-22T22:23:21.601Z,23.00
2022-09-22T22:26:26.803Z,24.00
2022-09-22T22:29:36.526Z,19.60
2022-09-22T22:32:41.779Z,22.40
2022-09-22T22:35:51.096Z,21.20
2022-09-22T22:38:55.848Z,21.00
2022-09-22T22:41:59.353Z,22.00
2022-09-22T22:45:03.064Z,20.00
2022-09-22T22:48:07.385Z,23.20
2022-09-22T22:51:12.631Z,24.00
2022-09-22T22:54:17.639Z,21.40
2022-09-22T22:57:21.028Z,24.00
2022-09-22T23:00:24.388Z,22.00
2022-09-22T23:03:27.793Z,22.00
2022-09-22T23:06:34.232Z,25.60
2022-09-22T23:09:38.983Z,22.40
2022-09-22T23:12:42.424Z,24.75
2022-09-22T23:15:45.756Z,23.00
2022-09-22T23:18:49.563Z,23.00
2022-09-22T23:21:52.923Z,22.60
2022-09-22T23:24:58.103Z,23.00
2022-09-22T23:28:02.068Z,27.50
2022-09-22T23:31:10.854Z,23.60
2022-09-22T23:34:14.371Z,25.80
2022-09-22T23:37:17.705Z,24.00
2022-09-22T23:40:22.839Z,25.00
2022-09-22T23:43:28.646Z,24.00
2022-09-22T23:46:32.872Z,25.00
2022-09-22T23:49:36.456Z,30.00
2022-09-22T23:52:39.820Z,26.00
2022-09-22T23:55:45.368Z,30.50
2022-09-22T23:58:49.183Z,30.00
